Time;durP1;ratioP1;P1;durP2;ratioP2;P2;SDS_P1;SDS_P2;PMS_P1;PMS_P2;Temp;Humidity;BMP_temperature;BMP_pressure;BME280_temperature;BME280_humidity;BME280_pressure;Samples;Min_cycle;Max_cycle;Signal;HPM_P1;HPM_P2
2023/05/31 00:00:58;;;;;;;9.93;9.17;;;;;;;16.06;99.41;92898.59;5011805;28;20231;-73
2023/05/31 00:03:24;;;;;;;10.40;9.80;;;;;;;16.02;100.00;92914.22;5012124;28;20191;-73
2023/05/31 00:05:49;;;;;;;10.40;9.60;;;;;;;15.81;100.00;92878.19;5012821;28;20231;-75
2023/05/31 00:08:14;;;;;;;10.53;9.80;;;;;;;16.16;99.76;92906.22;5012495;28;20294;-76
2023/05/31 00:10:40;;;;;;;10.90;10.17;;;;;;;16.13;99.28;92909.44;5012520;28;20296;-75
2023/05/31 00:13:05;;;;;;;11.03;10.33;;;;;;;16.23;98.24;92919.72;5014040;28;20187;-75
2023/05/31 00:15:31;;;;;;;12.27;11.00;;;;;;;16.30;98.70;92914.78;5012620;28;20238;-76
2023/05/31 00:17:56;;;;;;;11.03;10.27;;;;;;;16.28;98.74;92916.94;5013982;28;20183;-75
2023/05/31 00:20:21;;;;;;;9.93;9.43;;;;;;;16.11;99.09;92908.97;5017906;28;20211;-75
2023/05/31 00:22:47;;;;;;;11.37;10.67;;;;;;;16.04;99.43;92893.63;5014039;28;20187;-75
2023/05/31 00:25:12;;;;;;;11.13;10.53;;;;;;;16.15;99.80;92903.88;5011373;28;20803;-75
2023/05/31 00:27:38;;;;;;;10.33;9.77;;;;;;;16.22;99.76;92907.63;5013387;28;20785;-75
2023/05/31 00:30:03;;;;;;;10.27;9.63;;;;;;;16.37;98.51;92894.03;4992972;28;20243;-75
2023/05/31 00:32:29;;;;;;;10.63;9.93;;;;;;;16.44;98.14;92901.47;5011637;28;20275;-75
2023/05/31 00:34:54;;;;;;;10.17;9.60;;;;;;;16.49;97.66;92902.16;5016240;28;20239;-75
2023/05/31 00:37:20;;;;;;;11.30;10.43;;;;;;;16.47;98.28;92901.69;5013817;28;20183;-75
2023/05/31 00:39:45;;;;;;;10.57;9.93;;;;;;;16.32;99.80;92894.19;5011297;28;20240;-75
2023/05/31 00:42:11;;;;;;;10.23;9.60;;;;;;;16.53;98.95;92907.59;5012375;28;20250;-75
2023/05/31 00:44:36;;;;;;;9.90;9.37;;;;;;;16.56;99.07;92918.28;5012346;28;20222;-75
2023/05/31 00:47:02;;;;;;;11.13;10.07;;;;;;;16.56;99.01;92923.56;5012504;28;20203;-76
2023/05/31 00:49:28;;;;;;;10.80;10.10;;;;;;;16.53;99.51;92918.91;5015004;28;20293;-75
2023/05/31 00:51:54;;;;;;;10.17;9.47;;;;;;;16.56;98.99;92920.16;5011573;28;20179;-75
2023/05/31 00:54:20;;;;;;;10.90;10.20;;;;;;;16.42;99.15;92927.38;5010967;28;20223;-75
2023/05/31 00:56:46;;;;;;;10.77;10.10;;;;;;;16.05;100.00;92931.25;5003038;28;20191;-78
2023/05/31 00:59:11;;;;;;;10.53;9.97;;;;;;;15.94;100.00;92901.78;5011506;28;21771;-78
2023/05/31 01:01:37;;;;;;;10.80;9.80;;;;;;;16.25;100.00;92907.00;5011206;28;20186;-77
2023/05/31 01:04:03;;;;;;;11.10;10.40;;;;;;;16.54;100.00;92930.22;5015691;28;20190;-77
2023/05/31 01:06:32;;;;;;;11.10;10.23;;;;;;;16.61;99.44;92925.28;5013782;28;20184;-77
2023/05/31 01:09:00;;;;;;;10.93;10.23;;;;;;;16.66;98.55;92927.75;5011376;28;20253;-77
2023/05/31 01:11:53;;;;;;;10.90;10.23;;;;;;;16.55;99.53;92932.56;5003274;28;20227;-77
2023/05/31 01:14:25;;;;;;;10.67;9.77;;;;;;;16.47;100.00;92924.66;4999798;28;20228;-77
2023/05/31 01:16:54;;;;;;;10.57;9.87;;;;;;;16.60;99.50;92918.47;5011110;28;20256;-77
2023/05/31 01:19:47;;;;;;;11.93;11.13;;;;;;;16.65;99.30;92936.78;5011010;28;20282;-78
2023/05/31 01:22:17;;;;;;;11.17;10.40;;;;;;;16.42;99.54;92922.88;5011246;28;20219;-77
2023/05/31 01:24:59;;;;;;;10.87;10.23;;;;;;;16.65;98.72;92924.38;5009762;28;20239;-78
2023/05/31 01:27:25;;;;;;;9.67;9.13;;;;;;;16.25;100.00;92901.75;5010898;28;20188;-78
2023/05/31 01:29:52;;;;;;;9.93;9.33;;;;;;;16.29;100.00;92926.41;5011989;28;20227;-77
2023/05/31 01:32:20;;;;;;;10.43;9.73;;;;;;;16.22;100.00;92923.44;5011729;28;20184;-77
2023/05/31 01:34:46;;;;;;;10.80;10.17;;;;;;;16.09;100.00;92904.00;5009851;28;20238;-78
2023/05/31 01:37:11;;;;;;;11.30;10.50;;;;;;;16.30;100.00;92909.50;5011258;28;20179;-78
2023/05/31 01:39:37;;;;;;;10.37;9.77;;;;;;;16.48;99.86;92920.91;5010318;28;20267;-78
2023/05/31 01:42:04;;;;;;;9.43;8.93;;;;;;;16.42;100.00;92917.59;5010924;28;20198;-78
2023/05/31 01:44:32;;;;;;;11.63;10.93;;;;;;;16.30;100.00;92909.50;5011995;28;20239;-78
2023/05/31 01:46:58;;;;;;;10.87;10.17;;;;;;;16.22;100.00;92906.88;5010854;28;20183;-78
2023/05/31 01:49:24;;;;;;;10.47;9.57;;;;;;;16.35;100.00;92922.56;5010684;28;20239;-77
2023/05/31 01:51:50;;;;;;;9.40;8.90;;;;;;;16.35;100.00;92904.09;5011414;28;20187;-78
2023/05/31 01:54:16;;;;;;;11.20;10.50;;;;;;;16.45;100.00;92914.38;5010174;28;20302;-76
2023/05/31 01:56:43;;;;;;;10.70;10.00;;;;;;;16.51;100.00;92926.34;5010869;28;20201;-76
2023/05/31 01:59:09;;;;;;;10.33;9.73;;;;;;;16.14;100.00;92915.50;5010478;28;20175;-77
2023/05/31 02:01:37;;;;;;;10.83;9.83;;;;;;;16.29;100.00;92923.78;5012294;28;20179;-77
2023/05/31 02:04:02;;;;;;;10.67;9.70;;;;;;;16.35;100.00;92921.75;5010049;28;20230;-77
2023/05/31 02:06:27;;;;;;;10.60;10.00;;;;;;;16.35;100.00;92927.81;5011722;28;20184;-77
2023/05/31 02:08:54;;;;;;;10.57;9.97;;;;;;;15.81;100.00;92820.28;4980949;28;20202;-77
2023/05/31 02:11:20;;;;;;;10.30;9.60;;;;;;;16.39;100.00;92922.72;5003412;28;20227;-77
2023/05/31 02:13:46;;;;;;;10.90;10.10;;;;;;;16.32;100.00;92928.44;5010595;28;20219;-77
2023/05/31 02:16:11;;;;;;;10.30;9.60;;;;;;;16.19;100.00;92937.22;5009676;28;20303;-77
2023/05/31 02:18:36;;;;;;;10.60;10.00;;;;;;;16.11;100.00;92902.94;5014455;28;20171;-77
2023/05/31 02:21:02;;;;;;;9.43;8.93;;;;;;;16.37;100.00;92932.78;5009660;28;20227;-77
2023/05/31 02:23:28;;;;;;;10.40;9.80;;;;;;;16.01;100.00;92912.69;5010137;28;20222;-77
2023/05/31 02:25:55;;;;;;;9.93;9.33;;;;;;;16.21;100.00;92916.63;5009672;28;20234;-77
2023/05/31 02:28:20;;;;;;;10.00;9.40;;;;;;;15.98;100.00;92913.25;5011616;28;20187;-77
2023/05/31 02:30:54;;;;;;;10.60;9.87;;;;;;;16.17;100.00;92931.50;5009651;28;20234;-77
2023/05/31 02:33:20;;;;;;;10.63;9.83;;;;;;;16.17;100.00;92931.50;5012755;28;20206;-77
2023/05/31 02:35:45;;;;;;;11.33;10.27;;;;;;;16.29;100.00;92909.81;5007063;28;20226;-77
2023/05/31 02:38:11;;;;;;;10.00;9.27;;;;;;;16.33;100.00;92932.59;5010721;28;20187;-77
2023/05/31 02:40:36;;;;;;;10.50;9.93;;;;;;;16.34;99.33;92928.91;5009682;28;20246;-78
2023/05/31 02:43:02;;;;;;;10.43;9.83;;;;;;;16.39;99.47;92934.03;5010877;28;20186;-77
2023/05/31 02:45:27;;;;;;;10.17;9.57;;;;;;;16.44;99.36;92933.91;5010614;28;20223;-77
2023/05/31 02:47:53;;;;;;;10.33;9.73;;;;;;;16.54;98.41;92928.38;5012583;28;20239;-78
2023/05/31 02:50:18;;;;;;;10.47;9.80;;;;;;;16.46;98.83;92923.84;5010086;28;20215;-78
2023/05/31 02:52:46;;;;;;;11.40;10.50;;;;;;;16.33;99.38;92903.63;5013930;28;20187;-77
2023/05/31 02:55:11;;;;;;;11.40;10.70;;;;;;;16.31;100.00;92928.75;5015426;28;20290;-78
2023/05/31 02:57:37;;;;;;;11.20;10.47;;;;;;;16.26;100.00;92915.69;5010111;28;20203;-77
2023/05/31 03:00:10;;;;;;;9.77;9.27;;;;;;;16.24;100.00;92910.72;5011274;28;20251;-77
2023/05/31 03:02:36;;;;;;;10.23;9.57;;;;;;;16.25;100.00;92907.00;5007519;28;20186;-77
2023/05/31 03:05:03;;;;;;;11.07;10.10;;;;;;;16.41;100.00;92931.09;5014375;28;20239;-77
2023/05/31 03:07:29;;;;;;;10.03;9.43;;;;;;;16.43;98.94;92923.66;5024561;28;20266;-77
2023/05/31 03:09:55;;;;;;;11.40;10.70;;;;;;;16.56;97.71;92912.25;5006003;28;20224;-79
2023/05/31 03:12:21;;;;;;;11.10;10.20;;;;;;;16.43;97.14;92919.16;5013223;28;20223;-77
2023/05/31 03:14:46;;;;;;;11.40;10.37;;;;;;;16.69;97.21;92927.94;5013651;28;20223;-77
2023/05/31 03:17:11;;;;;;;11.23;10.43;;;;;;;16.67;98.83;92932.72;5017725;28;20184;-77
2023/05/31 03:19:37;;;;;;;10.73;10.03;;;;;;;16.51;99.91;92926.34;5013663;28;20219;-77
2023/05/31 03:22:02;;;;;;;9.77;9.17;;;;;;;16.48;100.00;92926.97;5013839;28;20185;-77
2023/05/31 03:24:28;;;;;;;11.03;10.33;;;;;;;16.36;100.00;92921.47;5013618;28;20250;-78
2023/05/31 03:26:54;;;;;;;11.80;11.10;;;;;;;16.24;100.00;92902.84;5013693;28;20259;-78
2023/05/31 03:29:20;;;;;;;10.53;9.83;;;;;;;16.53;100.00;92921.53;5012598;28;20234;-78
2023/05/31 03:31:45;;;;;;;10.97;10.17;;;;;;;16.77;97.46;92945.63;5017465;28;20183;-78
2023/05/31 03:34:11;;;;;;;10.87;9.87;;;;;;;16.78;96.75;92944.53;5012626;28;20215;-78
2023/05/31 03:36:36;;;;;;;10.67;9.97;;;;;;;16.57;98.07;92917.22;5018280;28;20179;-78
2023/05/31 03:39:03;;;;;;;10.50;9.90;;;;;;;16.81;98.18;92943.94;5019276;28;20194;-80
2023/05/31 03:41:29;;;;;;;10.27;9.40;;;;;;;16.39;100.00;92941.94;5012782;28;20208;-78
2023/05/31 03:43:54;;;;;;;10.67;9.83;;;;;;;16.34;99.97;92944.72;5013300;28;20191;-78
2023/05/31 03:46:20;;;;;;;11.33;10.33;;;;;;;16.32;100.00;92943.47;5013135;28;20179;-79
2023/05/31 03:48:45;;;;;;;11.70;10.97;;;;;;;16.38;99.74;92936.97;5012863;28;20184;-79
2023/05/31 03:51:10;;;;;;;11.27;10.57;;;;;;;16.61;99.09;92946.34;5012625;28;21937;-69
2023/05/31 03:53:36;;;;;;;11.30;10.37;;;;;;;16.76;98.07;92967.78;5012969;28;20207;-70
2023/05/31 03:56:01;;;;;;;11.70;10.87;;;;;;;16.83;98.21;92962.88;5011407;28;20227;-71
2023/05/31 03:58:27;;;;;;;10.90;10.10;;;;;;;16.89;98.20;92958.19;5011833;28;20180;-70
2023/05/31 04:00:52;;;;;;;10.83;10.23;;;;;;;16.82;100.00;92953.41;5016079;28;20235;-68
2023/05/31 04:03:18;;;;;;;14.10;12.27;;;;;;;16.95;98.83;92962.28;5014890;28;20250;-68
2023/05/31 04:05:43;;;;;;;11.50;10.60;;;;;;;17.06;98.37;92959.00;5011386;28;21022;-71
2023/05/31 04:08:09;;;;;;;11.93;10.93;;;;;;;17.04;99.21;92960.41;5011344;28;20195;-73
2023/05/31 04:10:34;;;;;;;11.90;11.00;;;;;;;17.08;99.24;92963.97;5010610;28;20254;-73
2023/05/31 04:12:59;;;;;;;13.17;12.13;;;;;;;16.94;99.80;92966.75;4991045;28;20200;-73
2023/05/31 04:15:25;;;;;;;12.73;11.63;;;;;;;16.80;100.00;92970.59;5008668;28;20314;-69
2023/05/31 04:17:51;;;;;;;12.27;10.90;;;;;;;17.19;99.09;92963.38;5011344;28;20199;-70
2023/05/31 04:20:17;;;;;;;12.67;11.53;;;;;;;17.31;98.16;92971.44;5010111;28;20219;-70
2023/05/31 04:22:42;;;;;;;13.40;12.20;;;;;;;17.38;97.57;92965.72;5011249;28;20222;-71
2023/05/31 04:25:09;;;;;;;12.93;11.93;;;;;;;17.43;97.00;92968.97;5010825;28;20226;-73
2023/05/31 04:27:38;;;;;;;13.10;11.80;;;;;;;17.59;95.75;92975.34;5011088;28;20180;-71
2023/05/31 04:30:05;;;;;;;13.60;12.30;;;;;;;17.65;95.52;92980.47;5001092;28;20227;-72
2023/05/31 04:32:34;;;;;;;14.60;13.40;;;;;;;17.63;95.47;92982.66;5008412;28;20204;-71
2023/05/31 04:35:03;;;;;;;14.20;13.10;;;;;;;17.62;95.57;92991.66;5011931;28;20238;-73
2023/05/31 04:37:29;;;;;;;14.43;13.13;;;;;;;17.54;96.69;92990.59;5012705;28;20195;-70
2023/05/31 04:39:58;;;;;;;14.63;13.27;;;;;;;17.58;95.81;92979.09;5010858;28;20234;-77
2023/05/31 04:42:26;;;;;;;14.03;12.77;;;;;;;17.75;96.29;92996.00;5009641;28;20247;-74
2023/05/31 04:44:57;;;;;;;12.50;11.20;;;;;;;17.85;95.07;92974.56;5018181;28;20246;-74
2023/05/31 04:47:24;;;;;;;13.57;12.37;;;;;;;17.91;93.83;92994.44;5019798;28;20186;-74
2023/05/31 04:49:50;;;;;;;14.00;12.67;;;;;;;17.65;94.69;92991.03;5014544;28;20227;-73
2023/05/31 04:52:16;;;;;;;13.83;12.63;;;;;;;17.97;93.70;92979.97;5015287;28;20255;-73
2023/05/31 04:54:42;;;;;;;13.50;12.47;;;;;;;17.71;94.29;92989.78;5011138;28;20279;-75
2023/05/31 04:57:07;;;;;;;13.23;12.20;;;;;;;18.16;93.07;92990.97;5010093;28;20186;-71
2023/05/31 04:59:32;;;;;;;14.40;13.10;;;;;;;18.32;92.01;93000.69;5013505;28;20250;-71
2023/05/31 05:01:58;;;;;;;15.30;14.00;;;;;;;18.45;90.99;93004.25;5013592;28;20215;-68
2023/05/31 05:04:23;;;;;;;13.97;12.73;;;;;;;18.50;90.43;93012.03;5012920;28;20226;-69
2023/05/31 05:06:49;;;;;;;13.87;12.50;;;;;;;18.61;89.15;93008.72;5013183;28;20184;-71
2023/05/31 05:09:14;;;;;;;13.93;12.73;;;;;;;18.81;88.68;93012.53;5009450;28;20247;-71
2023/05/31 05:11:39;;;;;;;13.37;12.07;;;;;;;18.85;88.39;93016.84;5011255;28;20232;-75
2023/05/31 05:14:05;;;;;;;13.97;12.77;;;;;;;18.18;90.86;93004.63;5018964;28;20218;-75
2023/05/31 05:16:30;;;;;;;14.97;13.50;;;;;;;18.50;90.19;93022.59;5015435;28;20219;-81
2023/05/31 05:18:56;;;;;;;14.07;12.83;;;;;;;18.70;88.45;93035.91;5011567;28;20176;-82
2023/05/31 05:21:22;;;;;;;13.70;12.50;;;;;;;18.89;87.05;93030.22;5010342;28;20212;-80
2023/05/31 05:23:48;;;;;;;13.97;12.87;;;;;;;19.02;86.67;93035.28;5011375;28;20290;-81
2023/05/31 05:26:13;;;;;;;12.17;11.03;;;;;;;18.85;88.19;93042.53;5008728;28;20262;-76
2023/05/31 05:28:39;;;;;;;13.47;12.37;;;;;;;18.95;88.13;93044.81;5018638;28;20180;-76
2023/05/31 05:31:04;;;;;;;14.37;12.93;;;;;;;18.88;88.26;93023.38;5012390;28;20244;-78
2023/05/31 05:33:30;;;;;;;12.90;11.80;;;;;;;19.05;86.98;93042.59;5014135;28;20233;-80
2023/05/31 05:35:55;;;;;;;14.53;13.27;;;;;;;19.13;86.57;93036.47;5011186;28;20275;-79
2023/05/31 05:38:21;;;;;;;13.07;12.17;;;;;;;19.13;86.41;93031.19;5011821;28;20192;-79
2023/05/31 05:40:46;;;;;;;16.83;11.53;;;;;;;19.27;84.83;93049.47;5011019;28;20302;-79
2023/05/31 05:43:12;;;;;;;12.87;11.70;;;;;;;19.24;84.74;93044.81;5014863;28;20209;-79
2023/05/31 05:45:38;;;;;;;13.43;12.43;;;;;;;19.27;84.50;93048.72;5003961;28;20220;-78
2023/05/31 05:48:03;;;;;;;12.90;12.00;;;;;;;19.41;84.91;93052.69;5019003;28;20210;-77
2023/05/31 05:50:29;;;;;;;12.43;11.53;;;;;;;19.28;86.75;93024.59;5010194;28;20225;-77
2023/05/31 05:52:54;;;;;;;12.57;11.43;;;;;;;19.63;83.85;93039.13;5017368;28;20188;-77
2023/05/31 05:55:20;;;;;;;14.47;12.97;;;;;;;19.70;83.27;93044.72;5008959;28;20269;-77
2023/05/31 05:57:46;;;;;;;12.87;11.97;;;;;;;20.05;82.19;93061.88;5021213;28;20209;-77
2023/05/31 06:00:12;;;;;;;11.90;11.00;;;;;;;19.98;82.47;93039.63;5010986;28;20260;-77
2023/05/31 06:02:37;;;;;;;12.40;11.50;;;;;;;20.05;82.50;93045.19;5011648;28;20185;-76
2023/05/31 06:05:03;;;;;;;13.33;12.33;;;;;;;20.02;80.34;93022.75;5011940;28;20287;-77
2023/05/31 06:07:29;;;;;;;13.03;12.03;;;;;;;19.87;80.75;93002.16;5010534;28;20189;-79
2023/05/31 06:09:56;;;;;;;12.50;11.60;;;;;;;19.85;81.22;93038.03;5009977;28;20280;-77
2023/05/31 06:12:21;;;;;;;12.37;11.37;;;;;;;19.82;82.19;93060.66;5013299;28;20245;-76
2023/05/31 06:14:48;;;;;;;12.60;11.70;;;;;;;19.92;82.03;93052.31;5015671;28;20231;-77
2023/05/31 06:17:13;;;;;;;13.37;12.27;;;;;;;20.06;81.84;93058.09;5010393;28;20181;-76
2023/05/31 06:19:39;;;;;;;12.43;11.53;;;;;;;19.89;80.96;93050.31;5009690;28;20260;-77
2023/05/31 06:22:04;;;;;;;12.13;11.33;;;;;;;19.68;81.44;93023.06;5010845;28;20258;-76
2023/05/31 06:24:30;;;;;;;12.27;11.27;;;;;;;19.71;81.26;93046.25;4993039;28;20220;-76
2023/05/31 06:26:55;;;;;;;13.40;12.30;;;;;;;19.77;82.02;93060.06;5017320;28;20191;-77
2023/05/31 06:29:21;;;;;;;14.40;13.20;;;;;;;20.08;81.95;93066.53;5011674;28;20282;-77
2023/05/31 06:31:46;;;;;;;13.20;12.00;;;;;;;20.02;81.29;93053.78;5022450;28;20196;-78
2023/05/31 06:34:12;;;;;;;13.33;11.93;;;;;;;20.13;81.44;93063.69;5012214;28;20299;-78
2023/05/31 06:36:37;;;;;;;13.07;11.97;;;;;;;20.59;80.23;93066.03;5014750;28;20182;-78
2023/05/31 06:39:03;;;;;;;16.00;14.40;;;;;;;20.72;79.73;93068.75;5013768;28;20208;-78
2023/05/31 06:41:29;;;;;;;13.27;12.10;;;;;;;20.87;78.62;93060.13;5014805;28;20221;-78
2023/05/31 06:43:55;;;;;;;13.40;12.20;;;;;;;20.86;77.84;93048.72;5030596;28;20202;-78
2023/05/31 06:46:20;;;;;;;14.03;12.77;;;;;;;20.57;77.89;93036.44;5019968;28;20180;-77
2023/05/31 06:48:45;;;;;;;14.27;12.83;;;;;;;20.98;77.78;93051.41;5009455;28;20228;-78
2023/05/31 06:51:11;;;;;;;13.03;11.77;;;;;;;21.14;76.43;93062.16;5024764;28;20240;-78
2023/05/31 06:53:36;;;;;;;13.20;12.20;;;;;;;21.26;76.99;93047.00;5013755;28;20336;-78
2023/05/31 06:56:02;;;;;;;12.23;11.30;;;;;;;21.37;76.81;93065.94;5013751;28;20225;-77
2023/05/31 06:58:31;;;;;;;13.33;12.03;;;;;;;21.17;77.02;93064.19;5000106;28;20264;-78
2023/05/31 07:00:57;;;;;;;12.97;11.57;;;;;;;21.05;77.66;93058.84;5013724;28;20296;-78
2023/05/31 07:03:22;;;;;;;12.70;11.63;;;;;;;21.26;77.99;93072.78;5013386;28;20193;-76
2023/05/31 07:05:48;;;;;;;12.77;11.67;;;;;;;21.40;77.54;93062.59;5013119;28;20254;-77
2023/05/31 07:08:15;;;;;;;13.23;11.93;;;;;;;21.62;76.39;93054.94;5013278;28;20202;-78
2023/05/31 07:10:41;;;;;;;11.50;10.50;;;;;;;21.64;73.73;93062.56;5013507;28;20226;-78
2023/05/31 07:13:07;;;;;;;11.95;11.13;;;;;;;21.70;74.16;93055.91;5018951;28;20210;-77
2023/05/31 07:15:33;;;;;;;12.65;11.65;;;;;;;22.11;75.02;93058.25;5012878;28;20240;-78
2023/05/31 07:17:58;;;;;;;11.10;10.20;;;;;;;22.14;71.38;93071.66;5013838;28;20201;-78
2023/05/31 07:20:24;;;;;;;11.55;10.65;;;;;;;22.20;69.29;93049.03;5013064;28;21004;-78
2023/05/31 07:22:51;;;;;;;10.77;9.90;;;;;;;22.10;71.73;93070.78;5013473;28;20194;-77
2023/05/31 07:25:16;;;;;;;11.82;10.90;;;;;;;22.11;72.35;93067.03;5012816;28;20227;-77
2023/05/31 07:27:42;;;;;;;10.80;9.98;;;;;;;22.40;72.00;93079.19;5017913;28;20187;-80
2023/05/31 07:30:08;;;;;;;11.23;10.50;;;;;;;22.67;70.60;93072.34;5016305;28;20223;-77
2023/05/31 07:32:33;;;;;;;11.57;10.68;;;;;;;23.03;69.23;93067.56;5013972;28;20238;-78
2023/05/31 07:34:59;;;;;;;11.80;10.80;;;;;;;22.37;70.70;93066.56;5025063;28;20226;-77
2023/05/31 07:37:24;;;;;;;12.13;11.15;;;;;;;22.38;71.84;93046.84;5013385;28;20196;-78
2023/05/31 07:39:50;;;;;;;11.38;10.40;;;;;;;22.85;69.77;93060.25;4996064;28;20219;-78
2023/05/31 07:42:15;;;;;;;12.25;11.18;;;;;;;23.22;69.52;93056.97;5016144;28;20184;-77
2023/05/31 07:44:40;;;;;;;11.40;10.30;;;;;;;23.57;66.08;93057.03;5017680;28;20229;-78
2023/05/31 07:47:06;;;;;;;10.75;10.02;;;;;;;23.46;66.18;93067.47;5013926;28;20242;-77
2023/05/31 07:49:31;;;;;;;11.75;10.93;;;;;;;23.69;65.65;93040.91;5014349;28;20226;-78
2023/05/31 07:51:57;;;;;;;12.25;11.32;;;;;;;23.89;65.32;93058.53;5014389;28;20185;-79
2023/05/31 07:54:22;;;;;;;11.05;10.25;;;;;;;23.97;63.38;93059.47;5012936;28;20233;-78
2023/05/31 07:56:48;;;;;;;12.13;10.82;;;;;;;23.75;64.94;93061.63;5013394;28;20188;-78
2023/05/31 07:59:13;;;;;;;11.75;10.85;;;;;;;23.33;66.70;93062.59;5017634;28;20222;-77
2023/05/31 08:01:40;;;;;;;12.50;11.23;;;;;;;23.46;67.44;93062.16;5012374;28;20194;-77
2023/05/31 08:04:07;;;;;;;11.40;10.43;;;;;;;23.73;67.35;93061.25;5012139;28;20194;-77
2023/05/31 08:06:33;;;;;;;11.43;10.30;;;;;;;24.14;64.26;93072.41;4996217;28;20190;-77
2023/05/31 08:08:59;;;;;;;10.15;9.45;;;;;;;24.20;64.20;93069.09;5012090;28;20184;-77
2023/05/31 08:11:25;;;;;;;11.88;10.77;;;;;;;23.95;63.00;93048.34;5013920;28;20210;-78
2023/05/31 08:13:51;;;;;;;10.85;9.93;;;;;;;23.84;63.77;93066.00;5013182;28;20214;-78
2023/05/31 08:16:17;;;;;;;10.88;10.13;;;;;;;22.99;65.71;93036.63;5012225;28;20242;-78
2023/05/31 08:18:43;;;;;;;11.48;10.50;;;;;;;23.26;65.25;93057.88;5018660;28;20181;-79
2023/05/31 08:21:08;;;;;;;10.48;9.68;;;;;;;23.47;65.72;93031.69;5018908;28;20237;-78
2023/05/31 08:23:34;;;;;;;10.90;10.20;;;;;;;23.64;64.85;93049.97;5010131;28;20259;-78
2023/05/31 08:25:59;;;;;;;10.98;10.02;;;;;;;23.26;65.16;93068.53;5004845;28;20237;-78
2023/05/31 08:28:24;;;;;;;10.98;10.05;;;;;;;23.36;67.16;93062.66;5020515;28;20202;-78
2023/05/31 08:30:50;;;;;;;11.57;10.52;;;;;;;23.39;65.25;93050.56;5007506;28;20220;-78
2023/05/31 08:33:15;;;;;;;10.75;9.88;;;;;;;23.66;65.88;93055.72;5011622;28;20201;-78
2023/05/31 08:35:41;;;;;;;11.27;10.38;;;;;;;23.30;65.65;93037.41;5011321;28;20239;-78
2023/05/31 08:38:06;;;;;;;11.98;11.07;;;;;;;23.14;68.54;93051.84;5011777;28;20186;-78
2023/05/31 08:40:32;;;;;;;11.68;10.82;;;;;;;23.29;67.33;93056.41;5011132;28;20249;-78
2023/05/31 08:43:07;;;;;;;19.25;10.73;;;;;;;22.88;67.33;93038.28;5011152;28;20249;-78
2023/05/31 08:45:35;;;;;;;12.07;11.20;;;;;;;23.03;67.38;93027.63;5011085;28;20232;-78
2023/05/31 08:48:30;;;;;;;12.23;11.32;;;;;;;23.42;68.41;93045.31;5011583;28;20181;-78
2023/05/31 08:50:56;;;;;;;12.10;11.05;;;;;;;23.97;66.59;93049.56;5010892;28;20252;-78
2023/05/31 08:53:25;;;;;;;11.93;10.85;;;;;;;23.43;66.74;93025.53;5013291;28;20196;-78
2023/05/31 08:55:54;;;;;;;13.13;11.77;;;;;;;23.28;67.58;93034.31;5012509;28;20222;-79
2023/05/31 08:58:20;;;;;;;12.23;11.25;;;;;;;23.55;65.56;93021.94;5011399;28;20181;-78
2023/05/31 09:00:46;;;;;;;11.95;10.93;;;;;;;24.05;65.25;93039.81;5024220;28;20237;-79
2023/05/31 09:03:12;;;;;;;12.70;11.70;;;;;;;24.15;66.74;93032.03;5011347;28;20189;-78
2023/05/31 09:05:38;;;;;;;12.30;10.70;;;;;;;24.47;64.78;93037.94;5010584;28;20255;-78
2023/05/31 09:08:03;;;;;;;12.70;11.60;;;;;;;24.25;63.84;93033.34;5014260;28;20283;-78
2023/05/31 09:10:29;;;;;;;13.10;11.90;;;;;;;24.28;64.95;93027.31;5011372;28;20234;-78
2023/05/31 09:12:55;;;;;;;11.32;10.32;;;;;;;24.16;61.99;93022.09;5011085;28;20185;-78
2023/05/31 09:15:25;;;;;;;11.32;10.43;;;;;;;24.09;64.46;93030.75;5010914;28;20226;-78
2023/05/31 09:17:50;;;;;;;14.80;10.75;;;;;;;24.42;63.35;93032.91;4993695;28;20196;-78
2023/05/31 09:20:17;;;;;;;12.70;11.50;;;;;;;24.50;64.41;93035.34;5011672;28;20214;-77
2023/05/31 09:22:48;;;;;;;11.80;10.90;;;;;;;24.48;65.40;93020.81;5010808;28;20276;-78
2023/05/31 09:25:14;;;;;;;12.40;11.38;;;;;;;24.39;64.32;93020.28;5006087;28;20230;-78
2023/05/31 09:27:39;;;;;;;11.65;10.85;;;;;;;24.25;62.80;93012.00;5010729;28;20698;-78
2023/05/31 09:30:10;;;;;;;11.45;10.55;;;;;;;24.39;64.30;93015.69;5010221;28;20294;-77
2023/05/31 09:32:36;;;;;;;12.40;11.45;;;;;;;24.24;63.75;93015.78;5010785;28;20180;-78
2023/05/31 09:35:13;;;;;;;11.35;10.45;;;;;;;23.24;67.52;93009.44;5011678;28;20240;-78
2023/05/31 09:37:44;;;;;;;13.57;11.13;;;;;;;23.53;68.75;93014.31;5014823;28;20192;-77
2023/05/31 09:40:12;;;;;;;12.18;11.15;;;;;;;23.90;68.88;93009.38;5018651;28;20212;-78
2023/05/31 09:42:38;;;;;;;11.88;10.98;;;;;;;24.08;65.17;92999.09;5012850;28;20210;-78
2023/05/31 09:45:04;;;;;;;12.95;11.75;;;;;;;24.42;61.98;93011.56;5010110;28;20228;-77
2023/05/31 09:47:29;;;;;;;11.90;11.00;;;;;;;24.77;63.69;92999.63;5010210;28;20189;-77
2023/05/31 09:49:55;;;;;;;11.00;10.15;;;;;;;24.01;61.03;93012.28;5010879;28;20222;-78
2023/05/31 09:52:37;;;;;;;15.05;10.00;;;;;;;23.52;63.29;92972.00;5023597;28;20182;-78
2023/05/31 09:55:07;;;;;;;11.05;10.15;;;;;;;23.33;65.07;92974.66;5011238;28;20241;-78
2023/05/31 09:57:40;;;;;;;11.18;10.48;;;;;;;23.04;65.36;92980.41;5016250;28;20176;-78
2023/05/31 10:00:12;;;;;;;12.55;11.05;;;;;;;23.07;67.54;92988.50;5010160;28;20229;-78
2023/05/31 10:02:40;;;;;;;12.05;10.95;;;;;;;22.71;68.07;92988.78;5011258;28;20279;-77
2023/05/31 10:05:07;;;;;;;11.65;10.77;;;;;;;22.81;69.23;92982.16;5010248;28;20237;-77
2023/05/31 10:07:32;;;;;;;12.80;11.77;;;;;;;23.20;69.64;92989.94;5009412;28;20252;-77
2023/05/31 10:09:57;;;;;;;12.18;11.00;;;;;;;23.60;69.69;92998.47;5011123;28;20230;-77
2023/05/31 10:12:26;;;;;;;12.57;11.60;;;;;;;23.62;67.76;92990.91;5010540;28;20234;-77
2023/05/31 10:14:59;;;;;;;12.30;11.20;;;;;;;23.41;66.49;93000.31;5023155;28;20236;-77
2023/05/31 10:17:28;;;;;;;11.95;10.95;;;;;;;23.31;67.52;92969.69;5010423;28;20261;-77
2023/05/31 10:19:59;;;;;;;12.18;11.27;;;;;;;22.88;66.21;92993.75;5009418;28;20247;-76
2023/05/31 10:22:29;;;;;;;11.63;10.63;;;;;;;22.99;67.43;93002.78;5014566;28;20192;-77
2023/05/31 10:25:05;;;;;;;11.15;10.35;;;;;;;23.04;68.99;92991.06;5009320;28;20233;-77
2023/05/31 10:27:44;;;;;;;11.95;10.90;;;;;;;23.22;67.57;92989.59;5009799;28;20192;-77
2023/05/31 10:30:12;;;;;;;10.50;9.80;;;;;;;23.01;68.07;92976.56;5000796;28;20235;-77
2023/05/31 10:32:45;;;;;;;12.05;11.13;;;;;;;23.12;66.87;92987.47;5009678;28;20810;-77
2023/05/31 10:35:11;;;;;;;10.32;9.52;;;;;;;22.82;65.33;92973.09;5011288;28;20245;-77
2023/05/31 10:37:41;;;;;;;11.88;10.98;;;;;;;22.97;66.56;92985.59;5027661;28;20239;-76
2023/05/31 10:40:19;;;;;;;10.60;9.60;;;;;;;22.95;66.53;92987.81;5028225;28;20270;-77
2023/05/31 10:42:58;;;;;;;10.43;9.63;;;;;;;23.04;65.73;92975.88;5027735;28;20611;-77
2023/05/31 10:45:30;;;;;;;10.15;9.45;;;;;;;23.48;65.86;92985.28;5016129;28;20216;-77
2023/05/31 10:48:14;;;;;;;10.95;10.15;;;;;;;24.07;63.85;92982.31;5021368;28;20182;-76
2023/05/31 10:51:00;;;;;;;11.35;10.45;;;;;;;23.86;63.24;92941.09;5022878;28;20312;-76
2023/05/31 10:53:31;;;;;;;10.63;9.82;;;;;;;24.09;62.88;92958.72;5027674;28;20202;-77
2023/05/31 10:56:22;;;;;;;9.80;9.07;;;;;;;24.31;59.56;92965.22;5014031;28;20236;-77
2023/05/31 10:58:53;;;;;;;10.18;9.35;;;;;;;24.33;59.85;92976.31;5021777;28;20174;-76
2023/05/31 11:01:20;;;;;;;9.35;8.75;;;;;;;23.96;57.76;92973.31;5018762;28;20221;-77
2023/05/31 11:03:50;;;;;;;9.52;8.93;;;;;;;24.09;58.66;92977.41;5027104;28;20181;-77
2023/05/31 11:06:25;;;;;;;10.77;9.48;;;;;;;24.24;58.57;92973.88;5017476;28;20281;-77
2023/05/31 11:09:08;;;;;;;8.98;8.27;;;;;;;24.40;56.76;92952.41;5010258;28;20227;-77
2023/05/31 11:11:33;;;;;;;10.05;9.45;;;;;;;24.75;57.22;92953.03;5017448;28;20276;-76
2023/05/31 11:14:03;;;;;;;8.68;8.18;;;;;;;25.27;52.45;92953.06;5009837;28;20217;-76
2023/05/31 11:16:33;;;;;;;9.55;8.90;;;;;;;25.08;55.84;92945.94;5010797;28;20266;-77
2023/05/31 11:19:06;;;;;;;9.52;8.93;;;;;;;25.79;52.78;92950.34;5009135;28;20175;-77